sensor_id;sensor_type;location;lat;lon;timestamp;P1;durP1;ratioP1;P2;durP2;ratioP2
10605;SDS011;5350;42.698;23.148;2023-06-22T00:02:26;7.13;;;6.53;;
10605;SDS011;5350;42.698;23.148;2023-06-22T00:04:52;8.30;;;6.68;;
10605;SDS011;5350;42.698;23.148;2023-06-22T00:07:19;9.38;;;6.75;;
10605;SDS011;5350;42.698;23.148;2023-06-22T00:09:46;7.43;;;6.82;;
10605;SDS011;5350;42.698;23.148;2023-06-22T00:12:14;7.63;;;6.93;;
10605;SDS011;5350;42.698;23.148;2023-06-22T00:14:40;6.90;;;6.28;;
10605;SDS011;5350;42.698;23.148;2023-06-22T00:17:07;7.35;;;6.68;;
10605;SDS011;5350;42.698;23.148;2023-06-22T00:19:34;7.60;;;6.82;;
10605;SDS011;5350;42.698;23.148;2023-06-22T00:22:01;7.15;;;6.45;;
10605;SDS011;5350;42.698;23.148;2023-06-22T00:24:28;7.75;;;7.00;;
10605;SDS011;5350;42.698;23.148;2023-06-22T00:26:55;7.35;;;6.60;;
10605;SDS011;5350;42.698;23.148;2023-06-22T00:29:23;7.13;;;6.43;;
10605;SDS011;5350;42.698;23.148;2023-06-22T00:31:50;8.00;;;6.57;;
10605;SDS011;5350;42.698;23.148;2023-06-22T00:34:16;8.77;;;6.70;;
10605;SDS011;5350;42.698;23.148;2023-06-22T00:36:43;8.52;;;6.75;;
10605;SDS011;5350;42.698;23.148;2023-06-22T00:39:10;6.70;;;6.10;;
10605;SDS011;5350;42.698;23.148;2023-06-22T00:41:37;9.57;;;6.50;;
10605;SDS011;5350;42.698;23.148;2023-06-22T00:44:03;7.28;;;5.90;;
10605;SDS011;5350;42.698;23.148;2023-06-22T00:46:33;7.28;;;6.57;;
10605;SDS011;5350;42.698;23.148;2023-06-22T00:49:00;7.97;;;6.53;;
10605;SDS011;5350;42.698;23.148;2023-06-22T00:51:26;7.03;;;6.32;;
10605;SDS011;5350;42.698;23.148;2023-06-22T00:53:54;6.32;;;5.72;;
10605;SDS011;5350;42.698;23.148;2023-06-22T00:56:21;6.28;;;5.78;;
10605;SDS011;5350;42.698;23.148;2023-06-22T00:58:50;8.93;;;6.63;;
10605;SDS011;5350;42.698;23.148;2023-06-22T01:01:19;7.90;;;6.13;;
10605;SDS011;5350;42.698;23.148;2023-06-22T01:03:50;6.78;;;6.07;;
10605;SDS011;5350;42.698;23.148;2023-06-22T01:06:22;6.57;;;6.03;;
10605;SDS011;5350;42.698;23.148;2023-06-22T01:08:56;7.40;;;6.60;;
10605;SDS011;5350;42.698;23.148;2023-06-22T01:11:31;9.30;;;6.15;;
10605;SDS011;5350;42.698;23.148;2023-06-22T01:14:04;7.00;;;6.30;;
10605;SDS011;5350;42.698;23.148;2023-06-22T01:16:40;7.43;;;6.05;;
10605;SDS011;5350;42.698;23.148;2023-06-22T01:22:02;6.88;;;6.05;;
10605;SDS011;5350;42.698;23.148;2023-06-22T01:24:32;6.88;;;6.18;;
10605;SDS011;5350;42.698;23.148;2023-06-22T01:27:09;6.57;;;5.97;;
10605;SDS011;5350;42.698;23.148;2023-06-22T01:29:48;7.97;;;6.63;;
10605;SDS011;5350;42.698;23.148;2023-06-22T01:32:17;6.80;;;6.20;;
10605;SDS011;5350;42.698;23.148;2023-06-22T01:34:45;7.38;;;6.60;;
10605;SDS011;5350;42.698;23.148;2023-06-22T01:37:14;7.15;;;6.50;;
10605;SDS011;5350;42.698;23.148;2023-06-22T01:39:41;7.75;;;7.03;;
10605;SDS011;5350;42.698;23.148;2023-06-22T01:42:09;6.45;;;5.85;;
10605;SDS011;5350;42.698;23.148;2023-06-22T01:44:36;7.40;;;6.53;;
10605;SDS011;5350;42.698;23.148;2023-06-22T01:47:05;8.00;;;7.20;;
10605;SDS011;5350;42.698;23.148;2023-06-22T01:49:33;8.82;;;6.22;;
10605;SDS011;5350;42.698;23.148;2023-06-22T01:51:59;8.07;;;6.43;;
10605;SDS011;5350;42.698;23.148;2023-06-22T01:54:26;8.55;;;6.95;;
10605;SDS011;5350;42.698;23.148;2023-06-22T01:56:53;7.28;;;6.53;;
10605;SDS011;5350;42.698;23.148;2023-06-22T01:59:23;8.13;;;6.85;;
10605;SDS011;5350;42.698;23.148;2023-06-22T02:01:57;7.82;;;7.03;;
10605;SDS011;5350;42.698;23.148;2023-06-22T02:04:31;6.95;;;6.25;;
10605;SDS011;5350;42.698;23.148;2023-06-22T02:07:02;7.65;;;6.93;;
10605;SDS011;5350;42.698;23.148;2023-06-22T02:09:35;7.72;;;6.93;;
10605;SDS011;5350;42.698;23.148;2023-06-22T02:12:05;9.05;;;7.68;;
10605;SDS011;5350;42.698;23.148;2023-06-22T02:14:34;7.47;;;6.80;;
10605;SDS011;5350;42.698;23.148;2023-06-22T02:17:02;7.50;;;6.80;;
10605;SDS011;5350;42.698;23.148;2023-06-22T02:19:35;7.70;;;7.00;;
10605;SDS011;5350;42.698;23.148;2023-06-22T02:22:03;8.40;;;7.28;;
10605;SDS011;5350;42.698;23.148;2023-06-22T02:24:30;8.50;;;7.57;;
10605;SDS011;5350;42.698;23.148;2023-06-22T02:26:58;9.93;;;7.47;;
10605;SDS011;5350;42.698;23.148;2023-06-22T02:29:25;7.90;;;7.20;;
10605;SDS011;5350;42.698;23.148;2023-06-22T02:31:53;11.02;;;7.15;;
10605;SDS011;5350;42.698;23.148;2023-06-22T02:34:21;9.55;;;7.35;;
10605;SDS011;5350;42.698;23.148;2023-06-22T02:36:49;9.05;;;8.23;;
10605;SDS011;5350;42.698;23.148;2023-06-22T02:39:18;7.63;;;6.93;;
10605;SDS011;5350;42.698;23.148;2023-06-22T02:41:47;8.38;;;7.57;;
10605;SDS011;5350;42.698;23.148;2023-06-22T02:44:13;8.00;;;7.25;;
10605;SDS011;5350;42.698;23.148;2023-06-22T02:46:40;8.70;;;8.00;;
10605;SDS011;5350;42.698;23.148;2023-06-22T02:49:07;8.95;;;8.05;;
10605;SDS011;5350;42.698;23.148;2023-06-22T02:51:34;9.27;;;8.07;;
10605;SDS011;5350;42.698;23.148;2023-06-22T02:54:02;8.85;;;8.05;;
10605;SDS011;5350;42.698;23.148;2023-06-22T02:56:29;10.18;;;8.52;;
10605;SDS011;5350;42.698;23.148;2023-06-22T02:58:56;8.75;;;8.00;;
10605;SDS011;5350;42.698;23.148;2023-06-22T03:01:25;8.80;;;8.00;;
10605;SDS011;5350;42.698;23.148;2023-06-22T03:03:52;9.27;;;8.38;;
10605;SDS011;5350;42.698;23.148;2023-06-22T03:06:19;10.13;;;8.55;;
10605;SDS011;5350;42.698;23.148;2023-06-22T03:08:48;8.98;;;8.07;;
10605;SDS011;5350;42.698;23.148;2023-06-22T03:11:16;9.32;;;8.32;;
10605;SDS011;5350;42.698;23.148;2023-06-22T03:13:43;9.10;;;8.30;;
10605;SDS011;5350;42.698;23.148;2023-06-22T03:16:10;9.95;;;8.45;;
10605;SDS011;5350;42.698;23.148;2023-06-22T03:18:37;9.07;;;8.27;;
10605;SDS011;5350;42.698;23.148;2023-06-22T03:21:04;8.50;;;7.65;;
10605;SDS011;5350;42.698;23.148;2023-06-22T03:23:30;9.75;;;8.75;;
10605;SDS011;5350;42.698;23.148;2023-06-22T03:25:57;9.10;;;8.27;;
10605;SDS011;5350;42.698;23.148;2023-06-22T03:28:25;8.35;;;7.57;;
10605;SDS011;5350;42.698;23.148;2023-06-22T03:30:52;8.98;;;8.18;;
10605;SDS011;5350;42.698;23.148;2023-06-22T03:33:18;9.70;;;8.73;;
10605;SDS011;5350;42.698;23.148;2023-06-22T03:35:45;8.70;;;7.90;;
10605;SDS011;5350;42.698;23.148;2023-06-22T03:38:12;8.68;;;7.88;;
10605;SDS011;5350;42.698;23.148;2023-06-22T03:40:38;8.52;;;7.75;;
10605;SDS011;5350;42.698;23.148;2023-06-22T03:43:05;9.07;;;8.18;;
10605;SDS011;5350;42.698;23.148;2023-06-22T03:45:33;9.18;;;8.27;;
10605;SDS011;5350;42.698;23.148;2023-06-22T03:48:00;8.50;;;7.70;;
10605;SDS011;5350;42.698;23.148;2023-06-22T03:50:26;7.95;;;7.25;;
10605;SDS011;5350;42.698;23.148;2023-06-22T03:52:53;8.32;;;7.38;;
10605;SDS011;5350;42.698;23.148;2023-06-22T03:55:20;7.47;;;6.78;;
10605;SDS011;5350;42.698;23.148;2023-06-22T03:57:47;8.27;;;7.43;;
10605;SDS011;5350;42.698;23.148;2023-06-22T04:00:14;11.60;;;6.88;;
10605;SDS011;5350;42.698;23.148;2023-06-22T04:02:43;10.68;;;7.40;;
10605;SDS011;5350;42.698;23.148;2023-06-22T04:05:10;10.65;;;8.02;;
10605;SDS011;5350;42.698;23.148;2023-06-22T04:07:36;8.18;;;7.47;;
10605;SDS011;5350;42.698;23.148;2023-06-22T04:10:03;12.10;;;9.63;;
10605;SDS011;5350;42.698;23.148;2023-06-22T04:12:30;12.27;;;8.57;;
10605;SDS011;5350;42.698;23.148;2023-06-22T04:14:57;8.60;;;7.80;;
10605;SDS011;5350;42.698;23.148;2023-06-22T04:17:24;9.77;;;7.70;;
10605;SDS011;5350;42.698;23.148;2023-06-22T04:19:52;9.18;;;8.27;;
10605;SDS011;5350;42.698;23.148;2023-06-22T04:22:19;8.80;;;8.00;;
10605;SDS011;5350;42.698;23.148;2023-06-22T04:24:45;8.82;;;7.90;;
10605;SDS011;5350;42.698;23.148;2023-06-22T04:27:12;7.88;;;7.13;;
10605;SDS011;5350;42.698;23.148;2023-06-22T04:29:39;7.90;;;7.10;;
10605;SDS011;5350;42.698;23.148;2023-06-22T04:32:14;7.30;;;6.70;;
10605;SDS011;5350;42.698;23.148;2023-06-22T04:34:41;7.97;;;7.18;;
10605;SDS011;5350;42.698;23.148;2023-06-22T04:37:09;7.63;;;6.93;;
10605;SDS011;5350;42.698;23.148;2023-06-22T04:39:40;7.05;;;6.45;;
10605;SDS011;5350;42.698;23.148;2023-06-22T04:42:07;7.75;;;6.97;;
10605;SDS011;5350;42.698;23.148;2023-06-22T04:44:34;12.35;;;7.85;;
10605;SDS011;5350;42.698;23.148;2023-06-22T04:47:01;8.75;;;7.82;;
10605;SDS011;5350;42.698;23.148;2023-06-22T04:49:29;8.07;;;7.28;;
10605;SDS011;5350;42.698;23.148;2023-06-22T04:51:59;8.32;;;7.53;;
10605;SDS011;5350;42.698;23.148;2023-06-22T04:54:27;9.05;;;7.70;;
10605;SDS011;5350;42.698;23.148;2023-06-22T04:56:57;8.55;;;7.65;;
10605;SDS011;5350;42.698;23.148;2023-06-22T04:59:24;8.27;;;7.55;;
10605;SDS011;5350;42.698;23.148;2023-06-22T05:01:54;7.85;;;7.15;;
10605;SDS011;5350;42.698;23.148;2023-06-22T05:04:21;9.13;;;6.75;;
10605;SDS011;5350;42.698;23.148;2023-06-22T05:06:49;8.00;;;7.15;;
10605;SDS011;5350;42.698;23.148;2023-06-22T05:09:16;7.53;;;6.93;;
10605;SDS011;5350;42.698;23.148;2023-06-22T05:11:44;7.88;;;7.13;;
10605;SDS011;5350;42.698;23.148;2023-06-22T05:14:11;8.20;;;7.40;;
10605;SDS011;5350;42.698;23.148;2023-06-22T05:16:39;7.47;;;6.70;;
10605;SDS011;5350;42.698;23.148;2023-06-22T05:19:07;7.95;;;7.25;;
10605;SDS011;5350;42.698;23.148;2023-06-22T05:21:34;7.93;;;7.00;;
10605;SDS011;5350;42.698;23.148;2023-06-22T05:24:01;7.85;;;7.07;;
10605;SDS011;5350;42.698;23.148;2023-06-22T05:26:28;8.38;;;7.50;;
10605;SDS011;5350;42.698;23.148;2023-06-22T05:28:57;9.18;;;7.38;;
10605;SDS011;5350;42.698;23.148;2023-06-22T05:31:24;9.35;;;8.10;;
10605;SDS011;5350;42.698;23.148;2023-06-22T05:33:51;11.10;;;8.60;;
10605;SDS011;5350;42.698;23.148;2023-06-22T05:36:19;13.93;;;9.57;;
10605;SDS011;5350;42.698;23.148;2023-06-22T05:38:46;13.18;;;8.98;;
10605;SDS011;5350;42.698;23.148;2023-06-22T05:41:13;15.07;;;11.70;;
10605;SDS011;5350;42.698;23.148;2023-06-22T05:43:40;14.82;;;11.82;;
10605;SDS011;5350;42.698;23.148;2023-06-22T05:46:08;11.52;;;8.85;;
10605;SDS011;5350;42.698;23.148;2023-06-22T05:48:34;12.38;;;8.50;;
10605;SDS011;5350;42.698;23.148;2023-06-22T05:51:01;9.73;;;8.75;;
10605;SDS011;5350;42.698;23.148;2023-06-22T05:53:28;10.13;;;9.07;;
10605;SDS011;5350;42.698;23.148;2023-06-22T05:55:55;11.02;;;8.93;;
10605;SDS011;5350;42.698;23.148;2023-06-22T05:58:22;11.98;;;9.32;;
10605;SDS011;5350;42.698;23.148;2023-06-22T06:00:49;12.75;;;9.25;;
10605;SDS011;5350;42.698;23.148;2023-06-22T06:03:17;11.05;;;9.05;;
10605;SDS011;5350;42.698;23.148;2023-06-22T06:05:43;10.18;;;8.27;;
10605;SDS011;5350;42.698;23.148;2023-06-22T06:08:11;12.00;;;8.73;;
10605;SDS011;5350;42.698;23.148;2023-06-22T06:10:37;10.43;;;8.80;;
10605;SDS011;5350;42.698;23.148;2023-06-22T06:13:04;14.60;;;8.57;;
10605;SDS011;5350;42.698;23.148;2023-06-22T06:15:31;9.48;;;8.60;;
10605;SDS011;5350;42.698;23.148;2023-06-22T06:17:58;11.10;;;8.98;;
10605;SDS011;5350;42.698;23.148;2023-06-22T06:20:26;10.05;;;9.05;;
10605;SDS011;5350;42.698;23.148;2023-06-22T06:22:54;10.90;;;9.70;;
10605;SDS011;5350;42.698;23.148;2023-06-22T06:25:21;9.80;;;8.82;;
10605;SDS011;5350;42.698;23.148;2023-06-22T06:27:48;10.38;;;8.60;;
10605;SDS011;5350;42.698;23.148;2023-06-22T06:30:17;10.00;;;9.10;;
10605;SDS011;5350;42.698;23.148;2023-06-22T06:32:45;12.35;;;9.38;;
10605;SDS011;5350;42.698;23.148;2023-06-22T06:35:13;9.60;;;8.77;;
10605;SDS011;5350;42.698;23.148;2023-06-22T06:37:43;9.95;;;9.13;;
10605;SDS011;5350;42.698;23.148;2023-06-22T06:40:12;9.73;;;8.70;;
10605;SDS011;5350;42.698;23.148;2023-06-22T06:42:40;9.32;;;8.52;;
10605;SDS011;5350;42.698;23.148;2023-06-22T06:45:10;10.18;;;9.18;;
10605;SDS011;5350;42.698;23.148;2023-06-22T06:47:37;11.77;;;9.15;;
10605;SDS011;5350;42.698;23.148;2023-06-22T06:50:05;11.02;;;9.55;;
10605;SDS011;5350;42.698;23.148;2023-06-22T06:52:33;11.35;;;9.02;;
10605;SDS011;5350;42.698;23.148;2023-06-22T06:55:01;11.48;;;8.82;;
10605;SDS011;5350;42.698;23.148;2023-06-22T06:57:29;11.55;;;9.20;;
10605;SDS011;5350;42.698;23.148;2023-06-22T06:59:57;12.57;;;9.73;;
10605;SDS011;5350;42.698;23.148;2023-06-22T07:02:25;12.52;;;9.48;;
10605;SDS011;5350;42.698;23.148;2023-06-22T07:04:54;10.00;;;9.13;;
10605;SDS011;5350;42.698;23.148;2023-06-22T07:07:21;12.45;;;10.60;;
10605;SDS011;5350;42.698;23.148;2023-06-22T07:09:48;11.55;;;9.77;;
10605;SDS011;5350;42.698;23.148;2023-06-22T07:12:16;10.27;;;9.38;;
10605;SDS011;5350;42.698;23.148;2023-06-22T07:14:42;10.63;;;9.50;;
10605;SDS011;5350;42.698;23.148;2023-06-22T07:17:09;11.30;;;10.02;;
10605;SDS011;5350;42.698;23.148;2023-06-22T07:19:36;13.30;;;9.95;;
10605;SDS011;5350;42.698;23.148;2023-06-22T07:22:03;15.63;;;10.07;;
10605;SDS011;5350;42.698;23.148;2023-06-22T07:24:30;13.05;;;10.27;;
10605;SDS011;5350;42.698;23.148;2023-06-22T07:26:57;10.77;;;9.63;;
10605;SDS011;5350;42.698;23.148;2023-06-22T07:29:25;12.35;;;9.95;;
10605;SDS011;5350;42.698;23.148;2023-06-22T07:31:53;11.13;;;10.00;;
10605;SDS011;5350;42.698;23.148;2023-06-22T07:34:21;11.80;;;10.35;;
10605;SDS011;5350;42.698;23.148;2023-06-22T07:36:48;11.75;;;10.30;;
10605;SDS011;5350;42.698;23.148;2023-06-22T07:39:15;11.35;;;10.20;;
10605;SDS011;5350;42.698;23.148;2023-06-22T07:41:42;11.85;;;10.07;;
10605;SDS011;5350;42.698;23.148;2023-06-22T07:44:08;11.38;;;10.38;;
10605;SDS011;5350;42.698;23.148;2023-06-22T07:46:36;10.80;;;10.00;;
10605;SDS011;5350;42.698;23.148;2023-06-22T07:49:03;12.82;;;10.55;;
10605;SDS011;5350;42.698;23.148;2023-06-22T07:51:30;11.32;;;10.13;;
10605;SDS011;5350;42.698;23.148;2023-06-22T07:53:56;11.07;;;10.05;;
10605;SDS011;5350;42.698;23.148;2023-06-22T07:56:23;10.55;;;9.65;;
10605;SDS011;5350;42.698;23.148;2023-06-22T07:58:50;11.00;;;10.07;;
10605;SDS011;5350;42.698;23.148;2023-06-22T08:01:16;11.02;;;10.02;;
10605;SDS011;5350;42.698;23.148;2023-06-22T08:03:47;10.73;;;9.77;;
10605;SDS011;5350;42.698;23.148;2023-06-22T08:06:14;10.32;;;9.27;;
10605;SDS011;5350;42.698;23.148;2023-06-22T08:08:41;10.30;;;9.40;;
10605;SDS011;5350;42.698;23.148;2023-06-22T08:11:08;10.48;;;9.48;;
10605;SDS011;5350;42.698;23.148;2023-06-22T08:13:35;10.35;;;9.45;;
10605;SDS011;5350;42.698;23.148;2023-06-22T08:16:02;10.48;;;9.57;;
10605;SDS011;5350;42.698;23.148;2023-06-22T08:18:29;9.75;;;8.98;;
10605;SDS011;5350;42.698;23.148;2023-06-22T08:20:57;10.35;;;9.35;;
10605;SDS011;5350;42.698;23.148;2023-06-22T08:23:23;9.63;;;8.77;;
10605;SDS011;5350;42.698;23.148;2023-06-22T08:25:50;10.70;;;9.73;;
10605;SDS011;5350;42.698;23.148;2023-06-22T08:28:17;9.32;;;8.57;;
10605;SDS011;5350;42.698;23.148;2023-06-22T08:30:43;9.10;;;8.40;;
10605;SDS011;5350;42.698;23.148;2023-06-22T08:33:10;9.98;;;9.18;;
10605;SDS011;5350;42.698;23.148;2023-06-22T08:35:37;9.70;;;8.80;;
10605;SDS011;5350;42.698;23.148;2023-06-22T08:38:05;9.35;;;8.55;;
10605;SDS011;5350;42.698;23.148;2023-06-22T08:40:33;9.15;;;8.30;;
10605;SDS011;5350;42.698;23.148;2023-06-22T08:43:00;9.30;;;8.50;;
10605;SDS011;5350;42.698;23.148;2023-06-22T08:45:27;9.63;;;8.82;;
10605;SDS011;5350;42.698;23.148;2023-06-22T08:47:54;9.23;;;8.40;;
10605;SDS011;5350;42.698;23.148;2023-06-22T08:50:20;8.93;;;8.30;;
10605;SDS011;5350;42.698;23.148;2023-06-22T08:52:47;10.75;;;8.40;;
10605;SDS011;5350;42.698;23.148;2023-06-22T08:55:15;9.60;;;8.85;;
10605;SDS011;5350;42.698;23.148;2023-06-22T08:57:42;8.85;;;8.25;;
10605;SDS011;5350;42.698;23.148;2023-06-22T09:00:09;8.77;;;8.07;;
10605;SDS011;5350;42.698;23.148;2023-06-22T09:02:43;9.45;;;8.55;;
10605;SDS011;5350;42.698;23.148;2023-06-22T09:05:10;9.70;;;8.90;;
10605;SDS011;5350;42.698;23.148;2023-06-22T09:07:37;9.70;;;8.70;;
10605;SDS011;5350;42.698;23.148;2023-06-22T09:10:04;8.88;;;8.07;;
10605;SDS011;5350;42.698;23.148;2023-06-22T09:12:33;8.65;;;7.95;;
10605;SDS011;5350;42.698;23.148;2023-06-22T09:15:02;9.15;;;8.38;;
10605;SDS011;5350;42.698;23.148;2023-06-22T09:17:29;9.15;;;8.38;;
10605;SDS011;5350;42.698;23.148;2023-06-22T09:19:56;9.43;;;8.48;;
10605;SDS011;5350;42.698;23.148;2023-06-22T09:22:22;8.15;;;7.57;;
10605;SDS011;5350;42.698;23.148;2023-06-22T09:24:54;8.13;;;7.43;;
10605;SDS011;5350;42.698;23.148;2023-06-22T09:27:39;10.18;;;7.72;;
10605;SDS011;5350;42.698;23.148;2023-06-22T09:30:06;8.13;;;7.45;;
10605;SDS011;5350;42.698;23.148;2023-06-22T09:33:07;8.18;;;7.47;;
10605;SDS011;5350;42.698;23.148;2023-06-22T09:35:33;7.88;;;7.05;;
10605;SDS011;5350;42.698;23.148;2023-06-22T09:38:00;8.27;;;7.47;;
10605;SDS011;5350;42.698;23.148;2023-06-22T09:40:27;9.02;;;7.38;;
10605;SDS011;5350;42.698;23.148;2023-06-22T09:42:55;8.60;;;8.00;;
10605;SDS011;5350;42.698;23.148;2023-06-22T09:45:22;7.60;;;7.00;;
10605;SDS011;5350;42.698;23.148;2023-06-22T09:47:48;7.97;;;7.28;;
10605;SDS011;5350;42.698;23.148;2023-06-22T09:50:15;7.68;;;7.10;;
10605;SDS011;5350;42.698;23.148;2023-06-22T09:52:42;7.93;;;7.32;;
10605;SDS011;5350;42.698;23.148;2023-06-22T09:55:11;8.55;;;7.40;;
10605;SDS011;5350;42.698;23.148;2023-06-22T09:57:38;7.95;;;7.25;;
10605;SDS011;5350;42.698;23.148;2023-06-22T10:00:07;8.35;;;7.60;;
10605;SDS011;5350;42.698;23.148;2023-06-22T10:02:36;7.95;;;7.35;;
10605;SDS011;5350;42.698;23.148;2023-06-22T10:05:03;7.88;;;7.28;;
10605;SDS011;5350;42.698;23.148;2023-06-22T10:07:30;10.75;;;7.60;;
10605;SDS011;5350;42.698;23.148;2023-06-22T10:09:57;7.78;;;7.15;;
10605;SDS011;5350;42.698;23.148;2023-06-22T10:12:24;8.73;;;7.60;;
10605;SDS011;5350;42.698;23.148;2023-06-22T10:14:51;8.18;;;7.03;;
10605;SDS011;5350;42.698;23.148;2023-06-22T10:17:19;8.20;;;7.45;;
10605;SDS011;5350;42.698;23.148;2023-06-22T10:19:46;11.85;;;7.50;;
10605;SDS011;5350;42.698;23.148;2023-06-22T10:22:13;7.30;;;6.80;;
10605;SDS011;5350;42.698;23.148;2023-06-22T10:24:39;7.93;;;7.22;;
10605;SDS011;5350;42.698;23.148;2023-06-22T10:27:09;8.13;;;7.20;;
10605;SDS011;5350;42.698;23.148;2023-06-22T10:29:36;8.07;;;7.47;;
10605;SDS011;5350;42.698;23.148;2023-06-22T10:32:03;9.13;;;7.18;;
10605;SDS011;5350;42.698;23.148;2023-06-22T10:34:32;8.63;;;7.75;;
10605;SDS011;5350;42.698;23.148;2023-06-22T10:36:59;7.68;;;6.97;;
10605;SDS011;5350;42.698;23.148;2023-06-22T10:39:26;7.97;;;7.38;;
10605;SDS011;5350;42.698;23.148;2023-06-22T10:41:52;8.00;;;7.20;;
10605;SDS011;5350;42.698;23.148;2023-06-22T10:44:20;9.98;;;7.63;;
10605;SDS011;5350;42.698;23.148;2023-06-22T10:46:47;7.93;;;7.28;;
10605;SDS011;5350;42.698;23.148;2023-06-22T10:49:14;8.00;;;7.40;;
10605;SDS011;5350;42.698;23.148;2023-06-22T10:51:42;8.05;;;7.35;;
10605;SDS011;5350;42.698;23.148;2023-06-22T10:54:08;7.43;;;6.93;;
10605;SDS011;5350;42.698;23.148;2023-06-22T10:56:35;8.75;;;7.20;;
10605;SDS011;5350;42.698;23.148;2023-06-22T10:59:02;7.65;;;7.05;;
10605;SDS011;5350;42.698;23.148;2023-06-22T11:01:29;8.48;;;7.40;;
10605;SDS011;5350;42.698;23.148;2023-06-22T11:03:56;9.55;;;7.60;;
10605;SDS011;5350;42.698;23.148;2023-06-22T11:06:23;7.72;;;7.13;;
10605;SDS011;5350;42.698;23.148;2023-06-22T11:08:51;7.93;;;7.32;;
10605;SDS011;5350;42.698;23.148;2023-06-22T11:11:18;7.68;;;7.10;;
10605;SDS011;5350;42.698;23.148;2023-06-22T11:13:44;7.85;;;7.13;;
10605;SDS011;5350;42.698;23.148;2023-06-22T11:16:11;7.75;;;7.15;;
10605;SDS011;5350;42.698;23.148;2023-06-22T11:18:38;7.97;;;7.28;;
10605;SDS011;5350;42.698;23.148;2023-06-22T11:21:04;7.43;;;6.80;;
10605;SDS011;5350;42.698;23.148;2023-06-22T11:23:31;7.45;;;6.75;;
10605;SDS011;5350;42.698;23.148;2023-06-22T11:25:59;7.70;;;7.10;;
10605;SDS011;5350;42.698;23.148;2023-06-22T11:28:27;7.15;;;6.55;;
10605;SDS011;5350;42.698;23.148;2023-06-22T11:30:53;7.22;;;6.65;;
10605;SDS011;5350;42.698;23.148;2023-06-22T11:33:20;6.65;;;6.25;;
10605;SDS011;5350;42.698;23.148;2023-06-22T11:35:47;7.63;;;7.13;;
10605;SDS011;5350;42.698;23.148;2023-06-22T11:38:14;8.07;;;7.38;;
10605;SDS011;5350;42.698;23.148;2023-06-22T11:40:40;8.05;;;7.22;;
10605;SDS011;5350;42.698;23.148;2023-06-22T11:43:08;8.20;;;7.35;;
10605;SDS011;5350;42.698;23.148;2023-06-22T11:45:35;7.97;;;7.22;;
10605;SDS011;5350;42.698;23.148;2023-06-22T11:48:02;7.50;;;6.93;;
10605;SDS011;5350;42.698;23.148;2023-06-22T11:50:29;7.32;;;6.72;;
10605;SDS011;5350;42.698;23.148;2023-06-22T11:53:00;7.07;;;6.57;;
10605;SDS011;5350;42.698;23.148;2023-06-22T11:55:27;7.93;;;7.18;;
10605;SDS011;5350;42.698;23.148;2023-06-22T11:57:54;8.02;;;7.38;;
10605;SDS011;5350;42.698;23.148;2023-06-22T12:00:25;7.63;;;6.93;;
10605;SDS011;5350;42.698;23.148;2023-06-22T12:02:52;7.70;;;7.00;;
10605;SDS011;5350;42.698;23.148;2023-06-22T12:05:19;7.45;;;6.85;;
10605;SDS011;5350;42.698;23.148;2023-06-22T12:07:47;7.80;;;7.10;;
10605;SDS011;5350;42.698;23.148;2023-06-22T12:10:14;6.90;;;6.45;;
10605;SDS011;5350;42.698;23.148;2023-06-22T12:12:41;8.70;;;7.05;;
10605;SDS011;5350;42.698;23.148;2023-06-22T12:15:08;9.00;;;7.57;;
10605;SDS011;5350;42.698;23.148;2023-06-22T12:17:37;8.48;;;7.55;;
10605;SDS011;5350;42.698;23.148;2023-06-22T12:20:05;8.75;;;7.88;;
10605;SDS011;5350;42.698;23.148;2023-06-22T12:22:33;10.52;;;9.45;;
10605;SDS011;5350;42.698;23.148;2023-06-22T12:24:59;9.02;;;8.13;;
10605;SDS011;5350;42.698;23.148;2023-06-22T12:27:27;9.70;;;6.57;;
10605;SDS011;5350;42.698;23.148;2023-06-22T12:29:55;7.65;;;5.85;;
10605;SDS011;5350;42.698;23.148;2023-06-22T12:32:22;13.73;;;6.07;;
10605;SDS011;5350;42.698;23.148;2023-06-22T12:34:50;15.50;;;6.32;;
10605;SDS011;5350;42.698;23.148;2023-06-22T12:37:17;11.95;;;6.03;;
10605;SDS011;5350;42.698;23.148;2023-06-22T12:39:45;12.65;;;6.20;;
10605;SDS011;5350;42.698;23.148;2023-06-22T12:42:11;8.95;;;5.03;;
10605;SDS011;5350;42.698;23.148;2023-06-22T12:44:38;8.23;;;4.60;;
10605;SDS011;5350;42.698;23.148;2023-06-22T12:47:06;8.68;;;5.47;;
10605;SDS011;5350;42.698;23.148;2023-06-22T12:49:33;7.57;;;4.80;;
10605;SDS011;5350;42.698;23.148;2023-06-22T12:52:01;10.73;;;5.13;;
10605;SDS011;5350;42.698;23.148;2023-06-22T12:54:28;10.63;;;5.40;;
10605;SDS011;5350;42.698;23.148;2023-06-22T12:56:55;10.27;;;5.18;;
10605;SDS011;5350;42.698;23.148;2023-06-22T12:59:22;7.35;;;4.97;;
10605;SDS011;5350;42.698;23.148;2023-06-22T13:01:49;8.43;;;5.53;;
10605;SDS011;5350;42.698;23.148;2023-06-22T13:04:16;9.02;;;5.63;;
10605;SDS011;5350;42.698;23.148;2023-06-22T13:06:43;8.95;;;6.35;;
10605;SDS011;5350;42.698;23.148;2023-06-22T13:09:13;8.88;;;6.57;;
10605;SDS011;5350;42.698;23.148;2023-06-22T13:11:41;5.88;;;5.28;;
10605;SDS011;5350;42.698;23.148;2023-06-22T13:14:08;7.78;;;5.78;;
10605;SDS011;5350;42.698;23.148;2023-06-22T13:16:35;6.72;;;6.13;;
10605;SDS011;5350;42.698;23.148;2023-06-22T13:19:02;8.02;;;6.05;;
10605;SDS011;5350;42.698;23.148;2023-06-22T13:21:29;6.93;;;6.22;;
10605;SDS011;5350;42.698;23.148;2023-06-22T13:23:56;10.48;;;6.65;;
10605;SDS011;5350;42.698;23.148;2023-06-22T13:26:24;10.98;;;6.93;;
10605;SDS011;5350;42.698;23.148;2023-06-22T13:28:53;10.02;;;6.75;;
10605;SDS011;5350;42.698;23.148;2023-06-22T13:31:20;9.57;;;6.20;;
10605;SDS011;5350;42.698;23.148;2023-06-22T13:33:47;9.00;;;6.80;;
10605;SDS011;5350;42.698;23.148;2023-06-22T13:36:14;10.90;;;7.18;;
10605;SDS011;5350;42.698;23.148;2023-06-22T13:38:40;11.13;;;6.97;;
10605;SDS011;5350;42.698;23.148;2023-06-22T13:41:07;9.10;;;7.10;;
10605;SDS011;5350;42.698;23.148;2023-06-22T13:43:35;6.50;;;5.95;;
10605;SDS011;5350;42.698;23.148;2023-06-22T13:46:02;9.13;;;6.63;;
10605;SDS011;5350;42.698;23.148;2023-06-22T13:48:28;6.88;;;6.15;;
10605;SDS011;5350;42.698;23.148;2023-06-22T13:50:55;9.52;;;7.18;;
10605;SDS011;5350;42.698;23.148;2023-06-22T13:53:22;8.10;;;6.88;;
10605;SDS011;5350;42.698;23.148;2023-06-22T13:55:50;8.93;;;6.63;;
10605;SDS011;5350;42.698;23.148;2023-06-22T13:58:17;9.10;;;6.90;;
10605;SDS011;5350;42.698;23.148;2023-06-22T14:00:46;8.65;;;6.40;;
10605;SDS011;5350;42.698;23.148;2023-06-22T14:03:14;8.45;;;7.00;;
10605;SDS011;5350;42.698;23.148;2023-06-22T14:05:41;7.75;;;6.70;;
10605;SDS011;5350;42.698;23.148;2023-06-22T14:08:08;8.52;;;7.70;;
10605;SDS011;5350;42.698;23.148;2023-06-22T14:10:35;9.27;;;8.38;;
10605;SDS011;5350;42.698;23.148;2023-06-22T14:13:02;8.57;;;6.97;;
10605;SDS011;5350;42.698;23.148;2023-06-22T14:15:30;9.07;;;7.40;;
10605;SDS011;5350;42.698;23.148;2023-06-22T14:17:59;7.32;;;6.72;;
10605;SDS011;5350;42.698;23.148;2023-06-22T14:20:25;9.23;;;7.70;;
10605;SDS011;5350;42.698;23.148;2023-06-22T14:22:52;8.32;;;7.47;;
10605;SDS011;5350;42.698;23.148;2023-06-22T14:25:19;12.48;;;8.15;;
10605;SDS011;5350;42.698;23.148;2023-06-22T14:27:45;9.38;;;8.38;;
10605;SDS011;5350;42.698;23.148;2023-06-22T14:30:12;11.50;;;8.98;;
10605;SDS011;5350;42.698;23.148;2023-06-22T14:32:39;9.63;;;8.73;;
10605;SDS011;5350;42.698;23.148;2023-06-22T14:35:07;9.55;;;8.65;;
10605;SDS011;5350;42.698;23.148;2023-06-22T14:37:34;10.15;;;9.25;;
10605;SDS011;5350;42.698;23.148;2023-06-22T14:40:00;9.43;;;8.52;;
10605;SDS011;5350;42.698;23.148;2023-06-22T14:42:28;11.45;;;9.38;;
10605;SDS011;5350;42.698;23.148;2023-06-22T14:44:55;10.90;;;9.90;;
10605;SDS011;5350;42.698;23.148;2023-06-22T14:47:22;9.95;;;8.80;;
10605;SDS011;5350;42.698;23.148;2023-06-22T14:49:48;10.00;;;9.00;;